sensor_id;sensor_type;location;lat;lon;timestamp;P1;durP1;ratioP1;P2;durP2;ratioP2
4565;SDS011;2295;51.050;14.608;2023-02-28T00:02:24;25.23;;;9.65;;
4565;SDS011;2295;51.050;14.608;2023-02-28T00:04:58;17.95;;;9.15;;
4565;SDS011;2295;51.050;14.608;2023-02-28T00:07:40;17.92;;;9.13;;
4565;SDS011;2295;51.050;14.608;2023-02-28T00:10:24;18.42;;;8.77;;
4565;SDS011;2295;51.050;14.608;2023-02-28T00:15:58;18.30;;;8.20;;
4565;SDS011;2295;51.050;14.608;2023-02-28T00:18:38;20.55;;;8.75;;
4565;SDS011;2295;51.050;14.608;2023-02-28T00:21:08;19.33;;;8.65;;
4565;SDS011;2295;51.050;14.608;2023-02-28T00:23:40;21.55;;;8.77;;
4565;SDS011;2295;51.050;14.608;2023-02-28T00:26:22;24.02;;;11.20;;
4565;SDS011;2295;51.050;14.608;2023-02-28T00:28:58;21.88;;;9.65;;
4565;SDS011;2295;51.050;14.608;2023-02-28T00:31:33;25.67;;;10.23;;
4565;SDS011;2295;51.050;14.608;2023-02-28T00:34:21;21.88;;;9.98;;
4565;SDS011;2295;51.050;14.608;2023-02-28T00:37:15;24.50;;;10.35;;
4565;SDS011;2295;51.050;14.608;2023-02-28T00:39:51;24.40;;;10.35;;
4565;SDS011;2295;51.050;14.608;2023-02-28T00:42:31;25.48;;;11.52;;
4565;SDS011;2295;51.050;14.608;2023-02-28T00:45:33;18.85;;;8.77;;
4565;SDS011;2295;51.050;14.608;2023-02-28T00:49:15;28.30;;;10.15;;
4565;SDS011;2295;51.050;14.608;2023-02-28T00:52:19;21.65;;;9.50;;
4565;SDS011;2295;51.050;14.608;2023-02-28T00:55:30;22.33;;;9.40;;
4565;SDS011;2295;51.050;14.608;2023-02-28T01:13:13;23.10;;;9.70;;
4565;SDS011;2295;51.050;14.608;2023-02-28T01:27:18;25.73;;;9.50;;
4565;SDS011;2295;51.050;14.608;2023-02-28T01:36:54;28.13;;;10.43;;
4565;SDS011;2295;51.050;14.608;2023-02-28T01:41:05;25.27;;;9.60;;
4565;SDS011;2295;51.050;14.608;2023-02-28T01:48:48;22.70;;;7.90;;
4565;SDS011;2295;51.050;14.608;2023-02-28T01:52:30;21.90;;;8.63;;
4565;SDS011;2295;51.050;14.608;2023-02-28T03:12:47;19.50;;;8.80;;
4565;SDS011;2295;51.050;14.608;2023-02-28T04:15:23;28.40;;;9.40;;
4565;SDS011;2295;51.050;14.608;2023-02-28T04:18:21;17.90;;;8.50;;
4565;SDS011;2295;51.050;14.608;2023-02-28T04:21:57;23.60;;;9.27;;
4565;SDS011;2295;51.050;14.608;2023-02-28T04:28:48;20.02;;;8.85;;
4565;SDS011;2295;51.050;14.608;2023-02-28T04:50:34;26.20;;;10.48;;
4565;SDS011;2295;51.050;14.608;2023-02-28T04:53:21;27.92;;;12.00;;
4565;SDS011;2295;51.050;14.608;2023-02-28T05:02:40;28.15;;;12.77;;
4565;SDS011;2295;51.050;14.608;2023-02-28T05:06:08;27.50;;;11.10;;
4565;SDS011;2295;51.050;14.608;2023-02-28T05:08:52;34.53;;;12.95;;
4565;SDS011;2295;51.050;14.608;2023-02-28T05:15:01;34.83;;;14.85;;
4565;SDS011;2295;51.050;14.608;2023-02-28T05:17:50;28.83;;;13.90;;
4565;SDS011;2295;51.050;14.608;2023-02-28T05:21:04;33.38;;;13.40;;
4565;SDS011;2295;51.050;14.608;2023-02-28T05:24:26;34.42;;;13.05;;
4565;SDS011;2295;51.050;14.608;2023-02-28T05:27:32;29.52;;;13.38;;
4565;SDS011;2295;51.050;14.608;2023-02-28T05:30:53;32.65;;;12.60;;
4565;SDS011;2295;51.050;14.608;2023-02-28T05:48:14;42.65;;;14.48;;
4565;SDS011;2295;51.050;14.608;2023-02-28T05:51:37;28.42;;;11.90;;
4565;SDS011;2295;51.050;14.608;2023-02-28T05:54:39;30.30;;;13.32;;
4565;SDS011;2295;51.050;14.608;2023-02-28T05:57:55;27.67;;;11.80;;
4565;SDS011;2295;51.050;14.608;2023-02-28T06:01:18;28.77;;;11.90;;
4565;SDS011;2295;51.050;14.608;2023-02-28T06:11:12;36.10;;;15.00;;
4565;SDS011;2295;51.050;14.608;2023-02-28T06:18:21;31.17;;;12.63;;
4565;SDS011;2295;51.050;14.608;2023-02-28T06:22:07;29.70;;;11.98;;
4565;SDS011;2295;51.050;14.608;2023-02-28T06:25:11;35.72;;;13.40;;
4565;SDS011;2295;51.050;14.608;2023-02-28T06:31:48;32.88;;;12.30;;
4565;SDS011;2295;51.050;14.608;2023-02-28T06:35:09;37.55;;;16.85;;
4565;SDS011;2295;51.050;14.608;2023-02-28T06:38:34;43.67;;;19.25;;
4565;SDS011;2295;51.050;14.608;2023-02-28T06:41:32;37.20;;;16.80;;
4565;SDS011;2295;51.050;14.608;2023-02-28T06:44:28;37.55;;;15.75;;
4565;SDS011;2295;51.050;14.608;2023-02-28T06:47:22;38.95;;;18.23;;
4565;SDS011;2295;51.050;14.608;2023-02-28T06:49:59;49.50;;;21.08;;
4565;SDS011;2295;51.050;14.608;2023-02-28T06:52:33;46.30;;;20.88;;
4565;SDS011;2295;51.050;14.608;2023-02-28T06:55:21;48.08;;;20.05;;
4565;SDS011;2295;51.050;14.608;2023-02-28T06:57:57;41.90;;;19.13;;
4565;SDS011;2295;51.050;14.608;2023-02-28T07:00:45;53.22;;;23.90;;
4565;SDS011;2295;51.050;14.608;2023-02-28T07:03:46;67.25;;;27.63;;
4565;SDS011;2295;51.050;14.608;2023-02-28T07:06:32;116.20;;;39.65;;
4565;SDS011;2295;51.050;14.608;2023-02-28T07:09:37;172.70;;;49.88;;
4565;SDS011;2295;51.050;14.608;2023-02-28T07:12:21;104.78;;;37.67;;
4565;SDS011;2295;51.050;14.608;2023-02-28T07:15:17;86.75;;;33.30;;
4565;SDS011;2295;51.050;14.608;2023-02-28T07:18:05;74.05;;;31.10;;
4565;SDS011;2295;51.050;14.608;2023-02-28T07:21:05;74.88;;;32.05;;
4565;SDS011;2295;51.050;14.608;2023-02-28T07:24:07;78.00;;;30.30;;
4565;SDS011;2295;51.050;14.608;2023-02-28T07:26:49;60.20;;;25.27;;
4565;SDS011;2295;51.050;14.608;2023-02-28T07:29:30;91.97;;;31.38;;
4565;SDS011;2295;51.050;14.608;2023-02-28T07:32:11;147.70;;;36.92;;
4565;SDS011;2295;51.050;14.608;2023-02-28T07:34:46;103.50;;;32.65;;
4565;SDS011;2295;51.050;14.608;2023-02-28T07:37:21;82.90;;;31.80;;
4565;SDS011;2295;51.050;14.608;2023-02-28T07:39:50;87.70;;;33.67;;
4565;SDS011;2295;51.050;14.608;2023-02-28T07:42:19;86.75;;;35.08;;
4565;SDS011;2295;51.050;14.608;2023-02-28T07:44:47;103.65;;;41.38;;
4565;SDS011;2295;51.050;14.608;2023-02-28T07:47:18;94.93;;;35.33;;
4565;SDS011;2295;51.050;14.608;2023-02-28T07:49:49;73.15;;;33.50;;
4565;SDS011;2295;51.050;14.608;2023-02-28T07:52:17;55.55;;;24.20;;
4565;SDS011;2295;51.050;14.608;2023-02-28T07:54:47;35.50;;;17.13;;
4565;SDS011;2295;51.050;14.608;2023-02-28T07:57:15;35.58;;;16.08;;
4565;SDS011;2295;51.050;14.608;2023-02-28T07:59:44;35.42;;;17.05;;
4565;SDS011;2295;51.050;14.608;2023-02-28T08:02:13;32.80;;;16.35;;
4565;SDS011;2295;51.050;14.608;2023-02-28T08:04:42;39.80;;;18.60;;
4565;SDS011;2295;51.050;14.608;2023-02-28T08:07:12;35.47;;;17.77;;
4565;SDS011;2295;51.050;14.608;2023-02-28T08:09:42;26.75;;;14.27;;
4565;SDS011;2295;51.050;14.608;2023-02-28T08:12:11;22.83;;;12.00;;
4565;SDS011;2295;51.050;14.608;2023-02-28T08:14:41;25.98;;;11.52;;
4565;SDS011;2295;51.050;14.608;2023-02-28T08:17:11;22.40;;;12.93;;
4565;SDS011;2295;51.050;14.608;2023-02-28T08:19:44;26.88;;;12.60;;
4565;SDS011;2295;51.050;14.608;2023-02-28T08:22:13;24.40;;;11.45;;
4565;SDS011;2295;51.050;14.608;2023-02-28T08:24:43;21.92;;;11.18;;
4565;SDS011;2295;51.050;14.608;2023-02-28T08:27:12;18.13;;;9.95;;
4565;SDS011;2295;51.050;14.608;2023-02-28T08:29:40;23.08;;;10.77;;
4565;SDS011;2295;51.050;14.608;2023-02-28T08:32:08;23.23;;;11.48;;
4565;SDS011;2295;51.050;14.608;2023-02-28T08:34:54;18.50;;;11.65;;
4565;SDS011;2295;51.050;14.608;2023-02-28T08:37:22;37.17;;;14.30;;
4565;SDS011;2295;51.050;14.608;2023-02-28T08:39:52;25.90;;;13.55;;
4565;SDS011;2295;51.050;14.608;2023-02-28T08:42:22;48.95;;;19.13;;
4565;SDS011;2295;51.050;14.608;2023-02-28T08:44:50;113.40;;;36.63;;
4565;SDS011;2295;51.050;14.608;2023-02-28T08:47:18;32.53;;;15.10;;
4565;SDS011;2295;51.050;14.608;2023-02-28T08:49:47;21.23;;;9.20;;
4565;SDS011;2295;51.050;14.608;2023-02-28T08:52:16;18.48;;;9.30;;
4565;SDS011;2295;51.050;14.608;2023-02-28T08:54:44;17.70;;;9.32;;
4565;SDS011;2295;51.050;14.608;2023-02-28T08:57:16;21.27;;;8.98;;
4565;SDS011;2295;51.050;14.608;2023-02-28T08:59:44;19.42;;;9.50;;
4565;SDS011;2295;51.050;14.608;2023-02-28T09:02:15;18.75;;;8.63;;
4565;SDS011;2295;51.050;14.608;2023-02-28T09:04:44;13.63;;;7.50;;
4565;SDS011;2295;51.050;14.608;2023-02-28T09:07:15;15.10;;;8.38;;
4565;SDS011;2295;51.050;14.608;2023-02-28T09:09:43;18.13;;;8.63;;
4565;SDS011;2295;51.050;14.608;2023-02-28T09:12:22;24.65;;;11.32;;
4565;SDS011;2295;51.050;14.608;2023-02-28T09:14:52;23.08;;;10.32;;
4565;SDS011;2295;51.050;14.608;2023-02-28T09:17:20;13.05;;;7.28;;
4565;SDS011;2295;51.050;14.608;2023-02-28T09:19:55;12.65;;;7.63;;
4565;SDS011;2295;51.050;14.608;2023-02-28T09:22:24;12.65;;;7.43;;
4565;SDS011;2295;51.050;14.608;2023-02-28T09:24:55;15.25;;;8.02;;
4565;SDS011;2295;51.050;14.608;2023-02-28T09:27:33;13.05;;;7.05;;
4565;SDS011;2295;51.050;14.608;2023-02-28T09:30:02;12.65;;;7.70;;
4565;SDS011;2295;51.050;14.608;2023-02-28T09:32:31;12.55;;;8.23;;
4565;SDS011;2295;51.050;14.608;2023-02-28T09:35:00;15.00;;;7.60;;
4565;SDS011;2295;51.050;14.608;2023-02-28T09:37:28;13.00;;;6.80;;
4565;SDS011;2295;51.050;14.608;2023-02-28T09:39:57;22.02;;;7.82;;
4565;SDS011;2295;51.050;14.608;2023-02-28T09:42:28;12.98;;;7.50;;
4565;SDS011;2295;51.050;14.608;2023-02-28T09:45:02;11.27;;;7.05;;
4565;SDS011;2295;51.050;14.608;2023-02-28T09:47:40;16.13;;;7.68;;
4565;SDS011;2295;51.050;14.608;2023-02-28T09:50:16;14.02;;;7.57;;
4565;SDS011;2295;51.050;14.608;2023-02-28T09:52:48;17.98;;;7.45;;
4565;SDS011;2295;51.050;14.608;2023-02-28T09:55:19;11.95;;;6.90;;
4565;SDS011;2295;51.050;14.608;2023-02-28T09:57:55;13.48;;;7.20;;
4565;SDS011;2295;51.050;14.608;2023-02-28T10:00:28;12.73;;;7.07;;
4565;SDS011;2295;51.050;14.608;2023-02-28T10:03:04;14.80;;;7.43;;
4565;SDS011;2295;51.050;14.608;2023-02-28T10:05:51;12.88;;;8.07;;
4565;SDS011;2295;51.050;14.608;2023-02-28T10:08:25;11.13;;;7.00;;
4565;SDS011;2295;51.050;14.608;2023-02-28T10:10:57;26.92;;;8.23;;
4565;SDS011;2295;51.050;14.608;2023-02-28T10:13:32;16.42;;;7.22;;
4565;SDS011;2295;51.050;14.608;2023-02-28T10:16:05;19.75;;;7.63;;
4565;SDS011;2295;51.050;14.608;2023-02-28T10:18:40;15.98;;;9.43;;
4565;SDS011;2295;51.050;14.608;2023-02-28T10:21:15;37.30;;;15.13;;
4565;SDS011;2295;51.050;14.608;2023-02-28T10:23:48;16.92;;;8.90;;
4565;SDS011;2295;51.050;14.608;2023-02-28T10:26:24;13.93;;;8.43;;
4565;SDS011;2295;51.050;14.608;2023-02-28T10:28:58;16.33;;;8.40;;
4565;SDS011;2295;51.050;14.608;2023-02-28T10:31:27;13.43;;;7.93;;
4565;SDS011;2295;51.050;14.608;2023-02-28T10:33:55;15.15;;;8.13;;
4565;SDS011;2295;51.050;14.608;2023-02-28T10:36:24;15.90;;;8.80;;
4565;SDS011;2295;51.050;14.608;2023-02-28T10:38:54;25.35;;;12.05;;
4565;SDS011;2295;51.050;14.608;2023-02-28T10:41:35;43.25;;;17.50;;
4565;SDS011;2295;51.050;14.608;2023-02-28T10:44:13;29.08;;;12.07;;
4565;SDS011;2295;51.050;14.608;2023-02-28T10:46:49;109.88;;;35.92;;
4565;SDS011;2295;51.050;14.608;2023-02-28T10:49:20;146.05;;;39.80;;
4565;SDS011;2295;51.050;14.608;2023-02-28T10:51:51;136.43;;;39.90;;
4565;SDS011;2295;51.050;14.608;2023-02-28T10:54:24;23.70;;;10.98;;
4565;SDS011;2295;51.050;14.608;2023-02-28T10:59:45;14.68;;;9.10;;
4565;SDS011;2295;51.050;14.608;2023-02-28T11:02:28;20.98;;;9.70;;
4565;SDS011;2295;51.050;14.608;2023-02-28T11:07:56;18.50;;;8.68;;
4565;SDS011;2295;51.050;14.608;2023-02-28T11:10:31;16.98;;;9.55;;
4565;SDS011;2295;51.050;14.608;2023-02-28T11:13:01;19.25;;;9.38;;
4565;SDS011;2295;51.050;14.608;2023-02-28T11:15:35;18.65;;;10.10;;
4565;SDS011;2295;51.050;14.608;2023-02-28T11:18:06;19.63;;;10.25;;
4565;SDS011;2295;51.050;14.608;2023-02-28T11:20:50;18.80;;;9.43;;
4565;SDS011;2295;51.050;14.608;2023-02-28T11:23:22;17.92;;;9.82;;
4565;SDS011;2295;51.050;14.608;2023-02-28T11:25:55;19.65;;;9.32;;
4565;SDS011;2295;51.050;14.608;2023-02-28T11:28:27;15.25;;;9.05;;
4565;SDS011;2295;51.050;14.608;2023-02-28T11:31:04;17.73;;;10.15;;
4565;SDS011;2295;51.050;14.608;2023-02-28T11:33:44;14.70;;;8.80;;
4565;SDS011;2295;51.050;14.608;2023-02-28T11:36:18;21.70;;;9.48;;
4565;SDS011;2295;51.050;14.608;2023-02-28T11:38:51;16.92;;;8.88;;
4565;SDS011;2295;51.050;14.608;2023-02-28T11:41:25;22.80;;;10.55;;
4565;SDS011;2295;51.050;14.608;2023-02-28T11:44:17;22.17;;;9.50;;
4565;SDS011;2295;51.050;14.608;2023-02-28T11:46:53;19.95;;;9.73;;
4565;SDS011;2295;51.050;14.608;2023-02-28T11:49:30;14.27;;;9.43;;
4565;SDS011;2295;51.050;14.608;2023-02-28T11:52:04;18.08;;;9.35;;
4565;SDS011;2295;51.050;14.608;2023-02-28T11:54:47;17.95;;;9.00;;
4565;SDS011;2295;51.050;14.608;2023-02-28T11:57:33;19.80;;;9.40;;
4565;SDS011;2295;51.050;14.608;2023-02-28T12:00:15;14.88;;;9.18;;
4565;SDS011;2295;51.050;14.608;2023-02-28T12:03:01;18.60;;;9.15;;
4565;SDS011;2295;51.050;14.608;2023-02-28T12:05:40;14.38;;;8.75;;
4565;SDS011;2295;51.050;14.608;2023-02-28T12:08:18;20.80;;;10.00;;
4565;SDS011;2295;51.050;14.608;2023-02-28T12:10:57;62.65;;;22.83;;
4565;SDS011;2295;51.050;14.608;2023-02-28T12:13:36;29.50;;;10.82;;
4565;SDS011;2295;51.050;14.608;2023-02-28T12:16:18;22.13;;;10.27;;
4565;SDS011;2295;51.050;14.608;2023-02-28T12:19:15;22.50;;;10.60;;
4565;SDS011;2295;51.050;14.608;2023-02-28T12:22:01;18.33;;;9.77;;
4565;SDS011;2295;51.050;14.608;2023-02-28T12:24:43;15.23;;;8.73;;
4565;SDS011;2295;51.050;14.608;2023-02-28T12:27:22;15.88;;;10.02;;
4565;SDS011;2295;51.050;14.608;2023-02-28T12:29:56;15.98;;;8.98;;
4565;SDS011;2295;51.050;14.608;2023-02-28T12:32:26;26.02;;;9.88;;
4565;SDS011;2295;51.050;14.608;2023-02-28T12:35:02;16.55;;;9.00;;
4565;SDS011;2295;51.050;14.608;2023-02-28T12:37:34;20.77;;;10.25;;
4565;SDS011;2295;51.050;14.608;2023-02-28T12:40:08;27.23;;;9.70;;
4565;SDS011;2295;51.050;14.608;2023-02-28T12:42:41;25.30;;;10.40;;
4565;SDS011;2295;51.050;14.608;2023-02-28T12:45:15;18.73;;;9.48;;
4565;SDS011;2295;51.050;14.608;2023-02-28T12:47:48;273.83;;;67.57;;
4565;SDS011;2295;51.050;14.608;2023-02-28T12:50:24;140.50;;;41.75;;
4565;SDS011;2295;51.050;14.608;2023-02-28T12:52:55;18.48;;;10.18;;
4565;SDS011;2295;51.050;14.608;2023-02-28T12:55:31;15.70;;;9.00;;
4565;SDS011;2295;51.050;14.608;2023-02-28T12:58:08;21.92;;;10.27;;
4565;SDS011;2295;51.050;14.608;2023-02-28T13:00:46;38.95;;;10.38;;
4565;SDS011;2295;51.050;14.608;2023-02-28T13:03:35;17.95;;;9.20;;
4565;SDS011;2295;51.050;14.608;2023-02-28T13:09:26;19.42;;;9.00;;
4565;SDS011;2295;51.050;14.608;2023-02-28T13:11:56;19.55;;;9.20;;
4565;SDS011;2295;51.050;14.608;2023-02-28T13:14:26;20.17;;;10.13;;
4565;SDS011;2295;51.050;14.608;2023-02-28T13:16:59;21.42;;;10.35;;
4565;SDS011;2295;51.050;14.608;2023-02-28T13:19:31;17.00;;;9.85;;
4565;SDS011;2295;51.050;14.608;2023-02-28T13:22:02;27.50;;;9.30;;
4565;SDS011;2295;51.050;14.608;2023-02-28T13:24:43;22.15;;;10.93;;
4565;SDS011;2295;51.050;14.608;2023-02-28T13:33:26;22.33;;;10.98;;
4565;SDS011;2295;51.050;14.608;2023-02-28T13:42:34;17.10;;;10.25;;
4565;SDS011;2295;51.050;14.608;2023-02-28T14:50:18;17.27;;;9.93;;
4565;SDS011;2295;51.050;14.608;2023-02-28T14:53:02;23.38;;;10.95;;
4565;SDS011;2295;51.050;14.608;2023-02-28T15:06:44;22.65;;;11.80;;
4565;SDS011;2295;51.050;14.608;2023-02-28T15:15:17;22.60;;;11.05;;
4565;SDS011;2295;51.050;14.608;2023-02-28T15:18:20;21.98;;;10.93;;
4565;SDS011;2295;51.050;14.608;2023-02-28T15:29:50;23.13;;;11.73;;
4565;SDS011;2295;51.050;14.608;2023-02-28T15:32:38;25.17;;;12.43;;
4565;SDS011;2295;51.050;14.608;2023-02-28T15:35:20;23.58;;;11.65;;
4565;SDS011;2295;51.050;14.608;2023-02-28T15:38:14;22.98;;;12.25;;
4565;SDS011;2295;51.050;14.608;2023-02-28T15:41:01;19.83;;;10.93;;
4565;SDS011;2295;51.050;14.608;2023-02-28T15:43:36;18.65;;;11.35;;
4565;SDS011;2295;51.050;14.608;2023-02-28T15:46:16;18.10;;;11.27;;
4565;SDS011;2295;51.050;14.608;2023-02-28T15:48:53;23.48;;;11.38;;
4565;SDS011;2295;51.050;14.608;2023-02-28T15:51:24;22.70;;;11.38;;
4565;SDS011;2295;51.050;14.608;2023-02-28T15:53:57;18.52;;;10.82;;
4565;SDS011;2295;51.050;14.608;2023-02-28T15:56:32;22.67;;;11.60;;
4565;SDS011;2295;51.050;14.608;2023-02-28T15:59:06;22.45;;;11.90;;
4565;SDS011;2295;51.050;14.608;2023-02-28T16:01:41;22.63;;;11.93;;
4565;SDS011;2295;51.050;14.608;2023-02-28T16:04:13;31.27;;;12.18;;
4565;SDS011;2295;51.050;14.608;2023-02-28T16:06:43;29.50;;;12.13;;
4565;SDS011;2295;51.050;14.608;2023-02-28T16:09:13;19.40;;;11.85;;
4565;SDS011;2295;51.050;14.608;2023-02-28T16:11:44;22.55;;;10.90;;
4565;SDS011;2295;51.050;14.608;2023-02-28T16:14:16;20.70;;;11.70;;
4565;SDS011;2295;51.050;14.608;2023-02-28T16:16:49;19.90;;;11.95;;
4565;SDS011;2295;51.050;14.608;2023-02-28T16:19:19;25.85;;;12.75;;
4565;SDS011;2295;51.050;14.608;2023-02-28T16:21:48;21.02;;;11.38;;
4565;SDS011;2295;51.050;14.608;2023-02-28T16:24:17;25.08;;;12.63;;
4565;SDS011;2295;51.050;14.608;2023-02-28T16:26:48;22.25;;;12.02;;
4565;SDS011;2295;51.050;14.608;2023-02-28T16:29:19;27.67;;;12.52;;
4565;SDS011;2295;51.050;14.608;2023-02-28T16:31:54;20.25;;;11.13;;
4565;SDS011;2295;51.050;14.608;2023-02-28T16:34:23;22.02;;;11.75;;
4565;SDS011;2295;51.050;14.608;2023-02-28T16:36:53;25.23;;;14.07;;
4565;SDS011;2295;51.050;14.608;2023-02-28T16:39:22;25.52;;;13.40;;
4565;SDS011;2295;51.050;14.608;2023-02-28T16:42:01;25.75;;;12.90;;
4565;SDS011;2295;51.050;14.608;2023-02-28T16:44:36;26.45;;;12.65;;
4565;SDS011;2295;51.050;14.608;2023-02-28T16:47:05;25.55;;;13.27;;
4565;SDS011;2295;51.050;14.608;2023-02-28T16:49:34;30.15;;;13.57;;
4565;SDS011;2295;51.050;14.608;2023-02-28T16:52:17;27.13;;;13.30;;
4565;SDS011;2295;51.050;14.608;2023-02-28T16:54:46;27.70;;;13.93;;
4565;SDS011;2295;51.050;14.608;2023-02-28T16:57:18;37.60;;;15.38;;
4565;SDS011;2295;51.050;14.608;2023-02-28T17:00:36;30.85;;;15.02;;
4565;SDS011;2295;51.050;14.608;2023-02-28T17:03:09;30.75;;;14.85;;
4565;SDS011;2295;51.050;14.608;2023-02-28T17:05:59;22.75;;;13.93;;
4565;SDS011;2295;51.050;14.608;2023-02-28T17:08:29;28.80;;;14.40;;
4565;SDS011;2295;51.050;14.608;2023-02-28T17:11:17;28.92;;;14.15;;
4565;SDS011;2295;51.050;14.608;2023-02-28T17:16:33;29.67;;;15.32;;
4565;SDS011;2295;51.050;14.608;2023-02-28T17:19:24;28.25;;;14.63;;
4565;SDS011;2295;51.050;14.608;2023-02-28T17:22:24;28.65;;;13.90;;
4565;SDS011;2295;51.050;14.608;2023-02-28T17:25:34;34.33;;;15.90;;
4565;SDS011;2295;51.050;14.608;2023-02-28T17:28:42;35.75;;;14.95;;
4565;SDS011;2295;51.050;14.608;2023-02-28T17:42:30;31.48;;;15.20;;
4565;SDS011;2295;51.050;14.608;2023-02-28T17:45:15;42.30;;;16.88;;
4565;SDS011;2295;51.050;14.608;2023-02-28T17:48:15;39.10;;;15.55;;
4565;SDS011;2295;51.050;14.608;2023-02-28T17:50:45;35.53;;;16.00;;
4565;SDS011;2295;51.050;14.608;2023-02-28T17:53:28;31.58;;;14.93;;
4565;SDS011;2295;51.050;14.608;2023-02-28T17:56:12;29.45;;;13.82;;
4565;SDS011;2295;51.050;14.608;2023-02-28T17:58:56;26.58;;;14.00;;
4565;SDS011;2295;51.050;14.608;2023-02-28T18:01:30;25.38;;;13.27;;
4565;SDS011;2295;51.050;14.608;2023-02-28T18:04:17;29.63;;;13.57;;
4565;SDS011;2295;51.050;14.608;2023-02-28T18:07:57;27.25;;;13.40;;
4565;SDS011;2295;51.050;14.608;2023-02-28T18:10:52;37.42;;;16.55;;
4565;SDS011;2295;51.050;14.608;2023-02-28T18:22:43;45.03;;;21.10;;
4565;SDS011;2295;51.050;14.608;2023-02-28T18:25:36;70.63;;;27.88;;
4565;SDS011;2295;51.050;14.608;2023-02-28T18:28:13;42.03;;;19.80;;
4565;SDS011;2295;51.050;14.608;2023-02-28T18:30:42;44.75;;;19.73;;
4565;SDS011;2295;51.050;14.608;2023-02-28T18:33:16;41.22;;;18.55;;
4565;SDS011;2295;51.050;14.608;2023-02-28T18:35:54;34.15;;;15.65;;
4565;SDS011;2295;51.050;14.608;2023-02-28T18:38:53;35.28;;;16.73;;
4565;SDS011;2295;51.050;14.608;2023-02-28T18:41:26;34.63;;;14.95;;
4565;SDS011;2295;51.050;14.608;2023-02-28T18:43:59;30.70;;;14.23;;
4565;SDS011;2295;51.050;14.608;2023-02-28T18:54:52;32.80;;;14.27;;
4565;SDS011;2295;51.050;14.608;2023-02-28T18:57:46;34.85;;;16.05;;
4565;SDS011;2295;51.050;14.608;2023-02-28T19:00:36;34.58;;;15.85;;
4565;SDS011;2295;51.050;14.608;2023-02-28T19:03:27;41.40;;;18.42;;
